createdAt,value
2023-02-26T00:01:47.002Z,3.71
2023-02-26T00:04:15.187Z,3.69
2023-02-26T00:06:53.080Z,3.74
2023-02-26T00:09:23.002Z,3.79
2023-02-26T00:11:51.658Z,3.79
2023-02-26T00:14:24.029Z,3.76
2023-02-26T00:17:14.982Z,3.73
2023-02-26T00:19:47.930Z,3.70
2023-02-26T00:22:16.827Z,3.65
2023-02-26T00:24:45.091Z,3.60
2023-02-26T00:27:14.805Z,3.63
2023-02-26T00:29:43.561Z,3.68
2023-02-26T00:32:12.223Z,3.72
2023-02-26T00:34:42.684Z,3.73
2023-02-26T00:37:33.838Z,3.71
2023-02-26T00:40:35.214Z,3.67
2023-02-26T00:43:06.579Z,3.62
2023-02-26T00:45:36.332Z,3.59
2023-02-26T00:48:28.570Z,3.56
2023-02-26T00:51:03.131Z,3.51
2023-02-26T00:53:39.571Z,3.52
2023-02-26T00:56:09.302Z,3.56
2023-02-26T00:58:38.777Z,3.58
2023-02-26T01:01:07.167Z,3.59
2023-02-26T01:03:36.667Z,3.58
2023-02-26T01:06:05.634Z,3.53
2023-02-26T01:08:48.072Z,3.50
2023-02-26T01:11:17.910Z,3.46
2023-02-26T01:13:46.738Z,3.49
2023-02-26T01:16:24.587Z,3.57
2023-02-26T01:19:09.536Z,3.60
2023-02-26T01:21:38.535Z,3.63
2023-02-26T01:24:08.825Z,3.62
2023-02-26T01:26:37.352Z,3.60
2023-02-26T01:29:06.744Z,3.61
2023-02-26T01:31:38.861Z,3.59
2023-02-26T01:34:20.393Z,3.56
2023-02-26T01:36:54.640Z,3.50
2023-02-26T01:39:36.417Z,3.51
2023-02-26T01:42:21.784Z,3.58
2023-02-26T01:45:03.652Z,3.66
2023-02-26T01:47:55.589Z,3.71
2023-02-26T01:50:30.139Z,3.72
2023-02-26T01:52:59.487Z,3.71
2023-02-26T01:55:27.818Z,3.69
2023-02-26T01:57:57.617Z,3.64
2023-02-26T02:00:25.877Z,3.58
2023-02-26T02:02:55.156Z,3.53
2023-02-26T02:05:35.982Z,3.50
2023-02-26T02:08:05.490Z,3.55
2023-02-26T02:10:33.972Z,3.61
2023-02-26T02:13:40.436Z,3.67
2023-02-26T02:16:21.043Z,3.69
2023-02-26T02:19:14.368Z,3.68
2023-02-26T02:22:25.232Z,3.62
2023-02-26T02:25:27.771Z,3.56
2023-02-26T02:28:06.539Z,3.51
2023-02-26T02:30:59.773Z,3.48
2023-02-26T02:33:31.772Z,3.46
2023-02-26T02:36:03.363Z,3.52
2023-02-26T02:38:34.869Z,3.61
2023-02-26T02:41:11.620Z,3.66
2023-02-26T02:43:41.356Z,3.69
2023-02-26T02:46:16.620Z,3.67
2023-02-26T02:49:08.427Z,3.65
2023-02-26T02:51:44.936Z,3.60
2023-02-26T02:54:17.027Z,3.54
2023-02-26T02:57:01.267Z,3.49
2023-02-26T02:59:36.594Z,3.45
2023-02-26T03:02:23.293Z,3.48
2023-02-26T03:04:52.065Z,3.54
2023-02-26T03:07:20.231Z,3.61
2023-02-26T03:09:53.020Z,3.64
2023-02-26T03:12:21.600Z,3.64
2023-02-26T03:14:55.504Z,3.63
2023-02-26T03:17:40.296Z,3.64
2023-02-26T03:20:17.164Z,3.62
2023-02-26T03:23:19.951Z,3.61
2023-02-26T03:26:12.019Z,3.57
2023-02-26T03:28:52.286Z,3.52
2023-02-26T03:31:25.307Z,3.49
2023-02-26T03:34:02.712Z,3.50
2023-02-26T03:36:36.105Z,3.58
2023-02-26T03:39:20.286Z,3.65
2023-02-26T03:41:55.104Z,3.70
2023-02-26T03:44:37.395Z,3.71
2023-02-26T03:47:07.648Z,3.70
2023-02-26T03:49:40.399Z,3.69
2023-02-26T03:52:08.503Z,3.67
2023-02-26T03:55:20.166Z,3.62
2023-02-26T03:58:04.416Z,3.57
2023-02-26T04:00:42.761Z,3.51
2023-02-26T04:03:16.466Z,3.48
2023-02-26T04:05:48.199Z,3.52
2023-02-26T04:08:17.041Z,3.56
2023-02-26T04:11:06.610Z,3.57
2023-02-26T04:13:35.962Z,3.58
2023-02-26T04:16:05.927Z,3.56
2023-02-26T04:18:34.996Z,3.48
2023-02-26T04:21:03.968Z,3.44
2023-02-26T04:23:32.199Z,3.41
2023-02-26T04:26:00.723Z,3.38
2023-02-26T04:28:30.434Z,3.34
2023-02-26T04:31:00.142Z,3.36
2023-02-26T04:33:28.826Z,3.35
2023-02-26T04:35:57.514Z,3.42
2023-02-26T04:38:26.572Z,3.53
2023-02-26T04:40:55.089Z,3.61
2023-02-26T04:43:23.365Z,3.68
2023-02-26T04:45:59.661Z,3.69
2023-02-26T04:48:28.113Z,3.67
2023-02-26T04:50:56.495Z,3.64
2023-02-26T04:53:24.970Z,3.59
2023-02-26T04:55:53.349Z,3.56
2023-02-26T04:58:24.011Z,3.51
2023-02-26T05:00:53.891Z,3.46
2023-02-26T05:03:22.188Z,3.40
2023-02-26T05:05:50.459Z,3.40
2023-02-26T05:08:19.756Z,3.45
2023-02-26T05:10:51.230Z,3.50
2023-02-26T05:13:20.207Z,3.57
2023-02-26T05:15:48.866Z,3.59
2023-02-26T05:18:18.295Z,3.59
2023-02-26T05:20:55.661Z,3.59
2023-02-26T05:23:23.958Z,3.59
2023-02-26T05:25:55.620Z,3.58
2023-02-26T05:28:27.900Z,3.57
2023-02-26T05:30:57.740Z,3.53
2023-02-26T05:33:26.792Z,3.49
2023-02-26T05:35:55.275Z,3.48
2023-02-26T05:38:23.754Z,3.57
2023-02-26T05:40:56.558Z,3.66
2023-02-26T05:43:25.585Z,3.74
2023-02-26T05:45:54.117Z,3.78
2023-02-26T05:48:24.339Z,3.80
2023-02-26T05:50:52.717Z,3.80
2023-02-26T05:53:21.105Z,3.79
2023-02-26T05:55:49.375Z,3.80
2023-02-26T05:58:21.161Z,3.75
2023-02-26T06:00:50.542Z,3.71
2023-02-26T06:03:19.930Z,3.71
2023-02-26T06:05:48.832Z,3.74
2023-02-26T06:08:18.227Z,3.81
2023-02-26T06:10:46.411Z,3.88
2023-02-26T06:13:14.788Z,3.88
2023-02-26T06:15:43.266Z,3.87
2023-02-26T06:18:11.644Z,3.86
2023-02-26T06:20:39.920Z,3.84
2023-02-26T06:23:08.356Z,3.80
2023-02-26T06:25:36.679Z,3.80
2023-02-26T06:28:06.398Z,3.79
2023-02-26T06:30:35.048Z,3.77
2023-02-26T06:33:03.458Z,3.75
2023-02-26T06:35:31.964Z,3.78
2023-02-26T06:38:00.600Z,3.87
2023-02-26T06:40:29.212Z,3.93
2023-02-26T06:42:57.488Z,3.97
2023-02-26T06:45:26.174Z,3.98
2023-02-26T06:47:54.349Z,3.97
2023-02-26T06:50:23.654Z,3.97
2023-02-26T06:52:52.959Z,3.96
2023-02-26T06:55:27.275Z,3.96
2023-02-26T06:57:55.704Z,3.96
2023-02-26T07:00:24.851Z,3.95
2023-02-26T07:02:53.329Z,3.94
2023-02-26T07:05:26.752Z,4.02
2023-02-26T07:07:56.705Z,4.12
2023-02-26T07:10:25.550Z,4.20
2023-02-26T07:12:53.739Z,4.25
2023-02-26T07:15:22.194Z,4.30
2023-02-26T07:17:53.459Z,4.33
2023-02-26T07:20:23.034Z,4.33
2023-02-26T07:22:51.922Z,4.32
2023-02-26T07:25:20.110Z,4.31
2023-02-26T07:27:48.490Z,4.30
2023-02-26T07:30:17.277Z,4.32
2023-02-26T07:32:45.594Z,4.40
2023-02-26T07:35:13.728Z,4.49
2023-02-26T07:37:43.024Z,4.56
2023-02-26T07:40:12.099Z,4.58
2023-02-26T07:42:41.878Z,4.59
2023-02-26T07:45:10.414Z,4.60
2023-02-26T07:47:39.507Z,4.63
2023-02-26T07:50:09.019Z,4.64
2023-02-26T07:52:37.090Z,4.61
2023-02-26T07:55:08.543Z,4.58
2023-02-26T07:57:36.939Z,4.65
2023-02-26T08:00:08.233Z,4.75
2023-02-26T08:02:41.663Z,4.85
2023-02-26T08:05:09.938Z,4.93
2023-02-26T08:07:38.112Z,4.98
2023-02-26T08:10:08.644Z,5.00
2023-02-26T08:12:36.952Z,5.00
2023-02-26T08:15:14.449Z,5.00
2023-02-26T08:17:43.550Z,4.96
2023-02-26T08:20:14.491Z,4.95
2023-02-26T08:22:42.794Z,4.95
2023-02-26T08:25:11.203Z,4.92
2023-02-26T08:27:40.241Z,4.99
2023-02-26T08:30:11.952Z,5.14
2023-02-26T08:32:42.690Z,5.24
2023-02-26T08:35:12.128Z,5.29
2023-02-26T08:37:41.086Z,5.33
2023-02-26T08:40:09.859Z,5.36
2023-02-26T08:42:38.057Z,5.38
2023-02-26T08:45:07.146Z,5.43
2023-02-26T08:47:39.368Z,5.45
2023-02-26T08:50:08.569Z,5.46
2023-02-26T08:52:37.120Z,5.48
2023-02-26T08:55:07.426Z,5.57
2023-02-26T08:57:36.260Z,5.65
2023-02-26T09:00:06.642Z,5.69
2023-02-26T09:02:38.582Z,5.72
2023-02-26T09:05:10.104Z,5.79
2023-02-26T09:07:39.153Z,5.85
2023-02-26T09:10:08.862Z,5.89
2023-02-26T09:12:38.472Z,5.91
2023-02-26T09:15:08.794Z,5.86
2023-02-26T09:17:37.586Z,5.81
2023-02-26T09:20:06.553Z,5.79
2023-02-26T09:22:38.444Z,5.79
2023-02-26T09:25:07.227Z,5.79
2023-02-26T09:27:36.440Z,5.88
2023-02-26T09:30:06.133Z,5.98
2023-02-26T09:32:35.513Z,6.00
2023-02-26T09:35:05.870Z,5.98
2023-02-26T09:37:35.428Z,5.99
2023-02-26T09:40:06.113Z,6.01
2023-02-26T09:42:42.815Z,6.03
2023-02-26T09:45:26.999Z,6.03
2023-02-26T09:47:55.521Z,6.04
2023-02-26T09:50:42.836Z,6.06
2023-02-26T09:53:22.098Z,6.11
2023-02-26T09:55:51.175Z,6.20
2023-02-26T09:58:27.055Z,6.28
2023-02-26T10:00:58.163Z,6.39
2023-02-26T10:03:45.101Z,6.43
2023-02-26T10:07:02.308Z,6.39
2023-02-26T10:09:58.551Z,6.38
2023-02-26T10:12:28.558Z,6.39
2023-02-26T10:14:59.439Z,6.41
2023-02-26T10:18:02.593Z,6.37
2023-02-26T10:20:36.814Z,6.32
2023-02-26T10:34:57.227Z,6.70
2023-02-26T10:37:48.387Z,7.20
2023-02-26T10:40:23.214Z,7.23
2023-02-26T10:42:58.519Z,7.24
2023-02-26T10:45:52.983Z,7.26
2023-02-26T10:48:39.452Z,7.33
2023-02-26T10:51:18.623Z,7.38
2023-02-26T10:53:52.883Z,7.42
2023-02-26T10:56:26.690Z,7.50
2023-02-26T10:58:55.070Z,7.54
2023-02-26T11:01:26.508Z,7.52
2023-02-26T11:04:03.619Z,7.50
2023-02-26T11:06:35.223Z,7.45
2023-02-26T11:09:04.267Z,7.44
2023-02-26T11:11:52.172Z,7.46
2023-02-26T11:14:21.876Z,7.52
2023-02-26T11:16:53.273Z,7.51
2023-02-26T11:19:52.230Z,7.46
2023-02-26T11:22:20.571Z,7.43
2023-02-26T11:24:49.742Z,7.38
2023-02-26T11:27:24.372Z,7.35
2023-02-26T11:30:00.226Z,7.35
2023-02-26T11:32:32.390Z,7.37
2023-02-26T11:35:08.173Z,7.38
2023-02-26T11:37:39.080Z,7.38
2023-02-26T11:40:24.358Z,7.40
2023-02-26T11:42:58.583Z,7.48
2023-02-26T11:45:26.769Z,7.47
2023-02-26T11:48:02.418Z,7.48
2023-02-26T11:50:31.258Z,7.47
2023-02-26T11:53:06.114Z,7.50
2023-02-26T11:55:38.608Z,7.54
2023-02-26T11:58:18.339Z,7.58
2023-02-26T12:00:47.452Z,7.67
2023-02-26T12:03:22.211Z,7.75
2023-02-26T12:05:53.289Z,7.81
2023-02-26T12:08:28.853Z,7.87
2023-02-26T12:11:07.365Z,7.87
2023-02-26T12:13:42.863Z,7.87
2023-02-26T12:16:20.467Z,7.89
2023-02-26T12:18:56.572Z,7.88
2023-02-26T12:21:36.864Z,7.90
2023-02-26T12:24:26.997Z,7.90
2023-02-26T12:27:18.935Z,7.88
2023-02-26T12:29:47.842Z,7.86
2023-02-26T12:32:46.959Z,7.83
2023-02-26T12:35:33.964Z,7.78
2023-02-26T12:38:07.903Z,7.76
2023-02-26T12:41:11.274Z,7.79
2023-02-26T12:43:45.318Z,7.86
2023-02-26T12:46:34.328Z,7.91
2023-02-26T12:49:17.604Z,7.93
2023-02-26T12:52:16.723Z,7.99
2023-02-26T12:55:02.365Z,8.01
2023-02-26T12:58:02.432Z,8.04
2023-02-26T13:00:30.774Z,8.08
2023-02-26T13:03:10.813Z,8.10
2023-02-26T13:06:10.020Z,8.13
2023-02-26T13:08:45.052Z,8.19
2023-02-26T13:11:38.416Z,8.18
2023-02-26T13:14:30.557Z,8.10
2023-02-26T13:17:19.144Z,8.01
2023-02-26T13:19:51.406Z,7.97
2023-02-26T13:22:35.055Z,8.00
2023-02-26T13:25:26.748Z,8.04
2023-02-26T13:27:55.218Z,8.05
2023-02-26T13:30:31.123Z,8.00
2023-02-26T13:33:00.091Z,7.98
2023-02-26T13:35:38.538Z,7.95
2023-02-26T13:38:19.088Z,7.90
2023-02-26T13:41:04.878Z,7.84
2023-02-26T13:44:02.805Z,7.75
2023-02-26T13:46:48.038Z,7.74
2023-02-26T13:49:38.168Z,7.77
2023-02-26T13:52:06.293Z,7.75
2023-02-26T13:54:45.196Z,7.76
2023-02-26T13:57:32.395Z,7.79
2023-02-26T14:00:22.039Z,7.81
2023-02-26T14:02:55.688Z,7.75
2023-02-26T14:05:28.656Z,7.72
2023-02-26T14:08:41.482Z,7.73
2023-02-26T14:11:18.252Z,7.75
2023-02-26T14:14:22.677Z,7.73
2023-02-26T14:17:08.027Z,7.64
2023-02-26T14:19:38.275Z,7.57
2023-02-26T14:22:28.671Z,7.63
2023-02-26T14:24:58.830Z,7.64
2023-02-26T14:30:48.792Z,7.40
2023-02-26T14:33:18.271Z,7.61
2023-02-26T14:35:49.214Z,7.69
2023-02-26T14:40:19.139Z,7.56
2023-02-26T14:42:58.891Z,7.61
2023-02-26T14:45:37.304Z,7.60
2023-02-26T14:48:21.661Z,7.57
2023-02-26T14:51:20.088Z,7.54
2023-02-26T14:54:26.813Z,7.50
2023-02-26T14:57:37.073Z,7.46
2023-02-26T15:00:13.048Z,7.44
2023-02-26T15:03:09.133Z,7.41
2023-02-26T15:05:41.328Z,7.36
2023-02-26T15:08:13.293Z,7.30
2023-02-26T15:10:57.649Z,7.27
2023-02-26T15:13:31.613Z,7.35
2023-02-26T15:16:21.882Z,7.38
2023-02-26T15:19:09.885Z,7.37
2023-02-26T15:22:09.706Z,7.25
2023-02-26T15:24:38.080Z,7.17
2023-02-26T15:27:07.422Z,7.17
2023-02-26T15:29:37.420Z,7.15
2023-02-26T15:32:27.440Z,7.09
2023-02-26T15:34:59.820Z,7.14
2023-02-26T15:37:33.599Z,7.12
2023-02-26T15:40:06.652Z,6.99
2023-02-26T15:42:38.624Z,6.95
2023-02-26T15:45:22.354Z,6.91
2023-02-26T15:47:54.232Z,6.92
2023-02-26T15:50:26.001Z,6.86
2023-02-26T15:52:56.911Z,6.82
2023-02-26T15:55:25.084Z,6.79
2023-02-26T15:57:54.844Z,6.78
2023-02-26T16:00:26.358Z,6.77
2023-02-26T16:02:57.498Z,6.74
2023-02-26T16:05:26.280Z,6.75
2023-02-26T16:07:55.271Z,6.70
2023-02-26T16:10:41.164Z,6.68
2023-02-26T16:13:14.273Z,6.67
2023-02-26T16:15:47.507Z,6.65
2023-02-26T16:18:18.623Z,6.64
2023-02-26T16:20:49.219Z,6.63
2023-02-26T16:23:21.283Z,6.62
2023-02-26T16:25:56.104Z,6.59
2023-02-26T16:28:32.033Z,6.58
2023-02-26T16:31:02.717Z,6.58
2023-02-26T16:33:34.659Z,6.58
2023-02-26T16:36:06.098Z,6.57
